Jarl — SFB6983 — position and weather

sailwx.info

Track history (hours):
 
Tides and Currents Weather Stations Pressure Air Temp Water Temp Dewpoint Dewpoint Depression Visibility Wind Speed Wind Dir Waves Ship Positions

Jarl

Last reported at 2018-Apr-20 06:44 UTC. Time now 2018-Apr-21 04:13 UTC.
Position N 59°21' E 018°08'.

Length 13 m.

Type: Port tender. MMSI: 265671980.

Date/timePositionNaut miles runAvg speedWind from/ knotsBaromVisibWave heightAir tempDewpointWater temp
2018-Apr-20 06:44N 59°21' E 018°08'1 6.0
2018-Apr-20 06:30N 59°20' E 018°10'1 1.1
2018-Apr-20 05:15N 59°20' E 018°13'2 7.0
2018-Apr-20 05:00N 59°20' E 018°09'1 0.1
2018-Apr-19 11:55N 59°21' E 018°08'0 0.0
2018-Apr-19 11:29N 59°21' E 018°08'0 0.0
2018-Apr-19 10:56N 59°21' E 018°08'0 0.0
2018-Apr-19 10:26N 59°21' E 018°08'0 0.0
2018-Apr-19 09:59N 59°21' E 018°08'0 0.0
2018-Apr-19 09:24N 59°21' E 018°08'1 2.4
2018-Apr-19 08:59N 59°20' E 018°09'1 2.5
2018-Apr-19 08:30N 59°19' E 018°08'2 3.2
2018-Apr-19 08:00N 59°19' E 018°05'0 0.0
2018-Apr-19 07:30N 59°19' E 018°05'0 0.8
2018-Apr-19 06:58N 59°19' E 018°05'0 0.0
2018-Apr-19 06:30N 59°19' E 018°05'1 1.7
2018-Apr-19 06:00N 59°19' E 018°07'1 2.8
2018-Apr-19 05:30N 59°20' E 018°09'1 2.7
2018-Apr-19 05:00N 59°21' E 018°08'0 0.0
2018-Apr-18 12:15N 59°21' E 018°08'0 0.0
2018-Apr-18 11:52N 59°21' E 018°08'0 0.0
2018-Apr-18 11:28N 59°21' E 018°08'0 0.0
2018-Apr-18 11:00N 59°21' E 018°08'2 3.4
2018-Apr-18 10:29N 59°19' E 018°09'0 0.2
2018-Apr-18 09:59N 59°19' E 018°08'0 0.2
2018-Apr-18 09:30N 59°19' E 018°08'0 0.2
2018-Apr-18 08:59N 59°19' E 018°08'0 1.0
2018-Apr-18 08:30N 59°19' E 018°09'2 0.9
2018-Apr-18 06:43N 59°21' E 018°08'0 0.0
2018-Apr-18 06:19N 59°21' E 018°08'0 0.0
2018-Apr-17 13:04N 59°21' E 018°08'0 0.3
2018-Apr-17 12:59N 59°21' E 018°08'1 2.7
2018-Apr-17 12:30N 59°20' E 018°09'2 3.0
2018-Apr-17 12:00N 59°19' E 018°07'1 2.8
2018-Apr-17 11:30N 59°18' E 018°04'2 3.7
2018-Apr-17 11:00N 59°19' E 018°01'1 1.3
2018-Apr-17 10:30N 59°19' E 018°02'1 1.9
2018-Apr-17 09:59N 59°19' E 018°04'1 1.8
2018-Apr-17 09:30N 59°19' E 018°03'2 2.8
2018-Apr-17 08:53N 59°18' E 018°05'0 1.2
2018-Apr-17 08:28N 59°19' E 018°06'0 0.0
2018-Apr-17 07:58N 59°19' E 018°06'0 0.8
2018-Apr-17 07:30N 59°19' E 018°06'0 0.6
2018-Apr-17 07:00N 59°19' E 018°06'0 0.5
2018-Apr-17 06:30N 59°19' E 018°06'1 2.5
2018-Apr-17 06:00N 59°19' E 018°09'1 2.3
2018-Apr-17 05:29N 59°20' E 018°09'1 1.2
2018-Apr-17 05:00N 59°21' E 018°08'  
2018-Apr-12 10:37N 59°21' E 018°08'0 0.2
2018-Apr-12 10:27N 59°21' E 018°08'1 1.7
2018-Apr-12 09:59N 59°20' E 018°09'1 2.2
2018-Apr-12 09:30N 59°19' E 018°09'2 3.1
2018-Apr-12 09:00N 59°19' E 018°06'1 1.1
2018-Apr-12 08:29N 59°19' E 018°05'0 0.9
2018-Apr-12 08:00N 59°19' E 018°05'1 1.4
2018-Apr-12 07:30N 59°20' E 018°05'0 0.2
2018-Apr-12 07:00N 59°20' E 018°05'0 0.0
2018-Apr-12 06:30N 59°20' E 018°05'1 3.0
2018-Apr-12 06:00N 59°19' E 018°08'1 2.3
2018-Apr-12 05:30N 59°20' E 018°09'1 2.1
2018-Apr-12 05:00N 59°21' E 018°08'0 0.0
2018-Apr-11 13:28N 59°21' E 018°08'0 0.5
2018-Apr-11 12:58N 59°21' E 018°07'0 0.1
2018-Apr-11 12:30N 59°21' E 018°07'0 0.0
2018-Apr-11 12:00N 59°21' E 018°07'0 0.5
2018-Apr-11 11:30N 59°21' E 018°08'0 0.0
2018-Apr-11 11:00N 59°21' E 018°08'0 0.0
2018-Apr-11 10:30N 59°21' E 018°08'0 0.2
2018-Apr-11 10:00N 59°21' E 018°08'0 0.8
2018-Apr-11 09:30N 59°21' E 018°07'0 0.2
2018-Apr-11 08:56N 59°21' E 018°07'1 1.2
2018-Apr-11 08:30N 59°21' E 018°08'0 0.1
2018-Apr-11 07:59N 59°21' E 018°08'0 0.0
2018-Apr-11 07:29N 59°21' E 018°08'0 0.0
2018-Apr-11 06:54N 59°21' E 018°08'1 2.2
2018-Apr-11 06:28N 59°21' E 018°07'1 1.3
2018-Apr-11 05:59N 59°22' E 018°06'2 3.3
2018-Apr-11 05:30N 59°21' E 018°08'0 0.0
2018-Apr-10 15:04N 59°21' E 018°08'0 5.5
2018-Apr-10 15:00N 59°21' E 018°08'2 4.9
2018-Apr-10 14:30N 59°18' E 018°06'3 5.3
2018-Apr-10 14:00N 59°19' E 018°01'2 3.3
2018-Apr-10 13:28N 59°19' E 018°04'1 1.5
2018-Apr-10 13:00N 59°19' E 018°03'1 1.8
2018-Apr-10 12:30N 59°19' E 018°02'2 3.1
2018-Apr-10 12:00N 59°18' E 018°05'2 4.1
2018-Apr-10 11:29N 59°19' E 018°09'2 3.1
2018-Apr-10 11:00N 59°21' E 018°08'1 1.3
2018-Apr-10 10:30N 59°21' E 018°07'0 0.2
2018-Apr-10 09:47N 59°21' E 018°07'0 0.1
2018-Apr-10 09:30N 59°21' E 018°07'0 0.1
2018-Apr-10 08:58N 59°21' E 018°07'0 0.1
2018-Apr-10 08:26N 59°21' E 018°07'1 1.6
2018-Apr-10 07:58N 59°21' E 018°08'0 0.1
2018-Apr-10 07:27N 59°21' E 018°08'0 0.0
2018-Apr-10 07:00N 59°21' E 018°08'  
Track history (hours):
 
Tides and Currents Weather Stations Pressure Air Temp Water Temp Dewpoint Dewpoint Depression Visibility Wind Speed Wind Dir Waves Ship Positions

Jarl

Last reported at 2018-Apr-20 06:44 UTC. Time now 2018-Apr-21 04:13 UTC.
Position N 59°21' E 018°08'.

Length 13 m.

Type: Port tender. MMSI: 265671980.

Date/timePositionNaut miles runAvg speedWind from/ knotsBaromVisibWave heightAir tempDewpointWater temp
2018-Apr-20 06:44N 59°21' E 018°08'1 6.0
2018-Apr-20 06:30N 59°20' E 018°10'1 1.1
2018-Apr-20 05:15N 59°20' E 018°13'2 7.0
2018-Apr-20 05:00N 59°20' E 018°09'1 0.1
2018-Apr-19 11:55N 59°21' E 018°08'0 0.0
2018-Apr-19 11:29N 59°21' E 018°08'0 0.0
2018-Apr-19 10:56N 59°21' E 018°08'0 0.0
2018-Apr-19 10:26N 59°21' E 018°08'0 0.0
2018-Apr-19 09:59N 59°21' E 018°08'0 0.0
2018-Apr-19 09:24N 59°21' E 018°08'1 2.4
2018-Apr-19 08:59N 59°20' E 018°09'1 2.5
2018-Apr-19 08:30N 59°19' E 018°08'2 3.2
2018-Apr-19 08:00N 59°19' E 018°05'0 0.0
2018-Apr-19 07:30N 59°19' E 018°05'0 0.8
2018-Apr-19 06:58N 59°19' E 018°05'0 0.0
2018-Apr-19 06:30N 59°19' E 018°05'1 1.7
2018-Apr-19 06:00N 59°19' E 018°07'1 2.8
2018-Apr-19 05:30N 59°20' E 018°09'1 2.7
2018-Apr-19 05:00N 59°21' E 018°08'0 0.0
2018-Apr-18 12:15N 59°21' E 018°08'0 0.0
2018-Apr-18 11:52N 59°21' E 018°08'0 0.0
2018-Apr-18 11:28N 59°21' E 018°08'0 0.0
2018-Apr-18 11:00N 59°21' E 018°08'2 3.4
2018-Apr-18 10:29N 59°19' E 018°09'0 0.2
2018-Apr-18 09:59N 59°19' E 018°08'0 0.2
2018-Apr-18 09:30N 59°19' E 018°08'0 0.2
2018-Apr-18 08:59N 59°19' E 018°08'0 1.0
2018-Apr-18 08:30N 59°19' E 018°09'2 0.9
2018-Apr-18 06:43N 59°21' E 018°08'0 0.0
2018-Apr-18 06:19N 59°21' E 018°08'0 0.0
2018-Apr-17 13:04N 59°21' E 018°08'0 0.3
2018-Apr-17 12:59N 59°21' E 018°08'1 2.7
2018-Apr-17 12:30N 59°20' E 018°09'2 3.0
2018-Apr-17 12:00N 59°19' E 018°07'1 2.8
2018-Apr-17 11:30N 59°18' E 018°04'2 3.7
2018-Apr-17 11:00N 59°19' E 018°01'1 1.3
2018-Apr-17 10:30N 59°19' E 018°02'1 1.9
2018-Apr-17 09:59N 59°19' E 018°04'1 1.8
2018-Apr-17 09:30N 59°19' E 018°03'2 2.8
2018-Apr-17 08:53N 59°18' E 018°05'0 1.2
2018-Apr-17 08:28N 59°19' E 018°06'0 0.0
2018-Apr-17 07:58N 59°19' E 018°06'0 0.8
2018-Apr-17 07:30N 59°19' E 018°06'0 0.6
2018-Apr-17 07:00N 59°19' E 018°06'0 0.5
2018-Apr-17 06:30N 59°19' E 018°06'1 2.5
2018-Apr-17 06:00N 59°19' E 018°09'1 2.3
2018-Apr-17 05:29N 59°20' E 018°09'1 1.2
2018-Apr-17 05:00N 59°21' E 018°08'  
2018-Apr-12 10:37N 59°21' E 018°08'0 0.2
2018-Apr-12 10:27N 59°21' E 018°08'1 1.7
2018-Apr-12 09:59N 59°20' E 018°09'1 2.2
2018-Apr-12 09:30N 59°19' E 018°09'2 3.1
2018-Apr-12 09:00N 59°19' E 018°06'1 1.1
2018-Apr-12 08:29N 59°19' E 018°05'0 0.9
2018-Apr-12 08:00N 59°19' E 018°05'1 1.4
2018-Apr-12 07:30N 59°20' E 018°05'0 0.2
2018-Apr-12 07:00N 59°20' E 018°05'0 0.0
2018-Apr-12 06:30N 59°20' E 018°05'1 3.0
2018-Apr-12 06:00N 59°19' E 018°08'1 2.3
2018-Apr-12 05:30N 59°20' E 018°09'1 2.1
2018-Apr-12 05:00N 59°21' E 018°08'0 0.0
2018-Apr-11 13:28N 59°21' E 018°08'0 0.5
2018-Apr-11 12:58N 59°21' E 018°07'0 0.1
2018-Apr-11 12:30N 59°21' E 018°07'0 0.0
2018-Apr-11 12:00N 59°21' E 018°07'0 0.5
2018-Apr-11 11:30N 59°21' E 018°08'0 0.0
2018-Apr-11 11:00N 59°21' E 018°08'0 0.0
2018-Apr-11 10:30N 59°21' E 018°08'0 0.2
2018-Apr-11 10:00N 59°21' E 018°08'0 0.8
2018-Apr-11 09:30N 59°21' E 018°07'0 0.2
2018-Apr-11 08:56N 59°21' E 018°07'1 1.2
2018-Apr-11 08:30N 59°21' E 018°08'0 0.1
2018-Apr-11 07:59N 59°21' E 018°08'0 0.0
2018-Apr-11 07:29N 59°21' E 018°08'0 0.0
2018-Apr-11 06:54N 59°21' E 018°08'1 2.2
2018-Apr-11 06:28N 59°21' E 018°07'1 1.3
2018-Apr-11 05:59N 59°22' E 018°06'2 3.3
2018-Apr-11 05:30N 59°21' E 018°08'0 0.0
2018-Apr-10 15:04N 59°21' E 018°08'0 5.5
2018-Apr-10 15:00N 59°21' E 018°08'2 4.9
2018-Apr-10 14:30N 59°18' E 018°06'3 5.3
2018-Apr-10 14:00N 59°19' E 018°01'2 3.3
2018-Apr-10 13:28N 59°19' E 018°04'1 1.5
2018-Apr-10 13:00N 59°19' E 018°03'1 1.8
2018-Apr-10 12:30N 59°19' E 018°02'2 3.1
2018-Apr-10 12:00N 59°18' E 018°05'2 4.1
2018-Apr-10 11:29N 59°19' E 018°09'2 3.1
2018-Apr-10 11:00N 59°21' E 018°08'1 1.3
2018-Apr-10 10:30N 59°21' E 018°07'0 0.2
2018-Apr-10 09:47N 59°21' E 018°07'0 0.1
2018-Apr-10 09:30N 59°21' E 018°07'0 0.1
2018-Apr-10 08:58N 59°21' E 018°07'0 0.1
2018-Apr-10 08:26N 59°21' E 018°07'1 1.6
2018-Apr-10 07:58N 59°21' E 018°08'0 0.1
2018-Apr-10 07:27N 59°21' E 018°08'0 0.0
2018-Apr-10 07:00N 59°21' E 018°08'  

Dump ship's entire track history